Time;durP1;ratioP1;P1;durP2;ratioP2;P2;SDS_P1;SDS_P2;PMS_P1;PMS_P2;Temp;Humidity;BMP_temperature;BMP_pressure;BME280_temperature;BME280_humidity;BME280_pressure;Samples;Min_cycle;Max_cycle;Signal;HPM_P1;HPM_P2
2022/06/01 00:01:18;;;;;;;5.30;4.78;;;19.00;64.00;;;;;;6140951;23;20155;-87
2022/06/01 00:03:45;;;;;;;5.93;5.20;;;18.90;63.70;;;;;;6200236;23;20610;-87
2022/06/01 00:06:12;;;;;;;5.97;5.32;;;19.00;63.60;;;;;;6202296;23;20153;-87
2022/06/01 00:08:41;;;;;;;6.95;5.22;;;19.00;63.70;;;;;;6203345;23;20158;-87
2022/06/01 00:11:07;;;;;;;6.35;5.50;;;18.90;63.70;;;;;;6201519;23;20153;-87
2022/06/01 00:13:33;;;;;;;7.65;5.32;;;19.00;63.90;;;;;;6201878;23;20126;-87
2022/06/01 00:16:03;;;;;;;7.97;5.15;;;19.00;64.00;;;;;;6201548;23;20187;-87
2022/06/01 00:18:31;;;;;;;8.48;5.60;;;19.00;63.80;;;;;;6202719;23;20130;-87
2022/06/01 00:21:01;;;;;;;7.20;4.85;;;19.00;63.90;;;;;;6202765;23;20142;-87
2022/06/01 00:23:37;;;;;;;5.82;5.00;;;18.90;63.70;;;;;;6177467;23;20138;-87
2022/06/01 00:26:03;;;;;;;5.90;5.20;;;18.90;64.00;;;;;;6178229;23;20157;-87
2022/06/01 00:28:29;;;;;;;6.82;5.60;;;18.90;63.90;;;;;;6177955;23;20505;-87
2022/06/01 00:31:04;;;;;;;6.30;5.30;;;18.90;64.00;;;;;;6203445;23;20126;-87
2022/06/01 00:33:31;;;;;;;6.82;5.50;;;18.90;64.00;;;;;;6202555;23;20132;-87
2022/06/01 00:35:59;;;;;;;6.07;5.43;;;18.90;64.10;;;;;;6203131;23;20149;-87
2022/06/01 00:38:25;;;;;;;5.80;5.20;;;18.80;64.00;;;;;;6203748;23;20152;-87
2022/06/01 00:40:59;;;;;;;6.38;5.03;;;18.80;64.10;;;;;;6177611;23;20632;-87
2022/06/01 00:43:37;;;;;;;6.03;5.30;;;18.80;64.20;;;;;;6202224;23;20189;-87
2022/06/01 00:46:04;;;;;;;6.00;5.40;;;18.80;64.20;;;;;;6185765;23;20173;-86
2022/06/01 00:48:31;;;;;;;5.90;5.20;;;18.80;64.30;;;;;;6182723;23;20149;-86
2022/06/01 00:51:00;;;;;;;6.10;5.43;;;18.80;64.20;;;;;;6183734;23;20149;-87
2022/06/01 00:53:30;;;;;;;7.00;5.40;;;18.80;64.10;;;;;;6208179;23;20149;-87
2022/06/01 00:56:06;;;;;;;5.68;4.75;;;18.80;64.30;;;;;;6183538;23;20175;-87
2022/06/01 00:58:39;;;;;;;5.53;4.80;;;18.80;64.20;;;;;;6208358;23;20231;-87
2022/06/01 01:01:08;;;;;;;6.43;5.68;;;18.80;64.20;;;;;;6208044;23;20149;-87
2022/06/01 01:03:40;;;;;;;6.28;5.32;;;18.80;64.40;;;;;;6184171;23;20149;-87
2022/06/01 01:06:29;;;;;;;6.03;5.43;;;18.80;64.40;;;;;;6183072;23;20162;-87
2022/06/01 01:08:59;;;;;;;5.88;5.13;;;18.90;64.60;;;;;;6232599;23;20141;-87
2022/06/01 01:11:29;;;;;;;7.22;5.68;;;18.80;64.50;;;;;;6183404;23;20142;-87
2022/06/01 01:13:56;;;;;;;6.93;5.00;;;18.80;64.40;;;;;;6208495;23;20133;-87
2022/06/01 01:16:25;;;;;;;6.10;5.50;;;18.80;64.50;;;;;;6183373;23;20149;-87
2022/06/01 01:18:54;;;;;;;6.65;5.22;;;18.80;64.60;;;;;;6208267;23;20561;-87
2022/06/01 01:21:48;;;;;;;5.85;5.25;;;18.80;64.60;;;;;;6207636;23;20134;-87
2022/06/01 01:24:22;;;;;;;6.07;5.47;;;18.80;64.40;;;;;;6207342;23;20236;-87
2022/06/01 01:26:50;;;;;;;6.22;5.57;;;18.80;64.50;;;;;;6184844;23;20184;-87
2022/06/01 01:29:35;;;;;;;6.65;5.50;;;18.80;64.50;;;;;;6208300;23;20126;-87
2022/06/01 01:32:01;;;;;;;6.90;5.25;;;18.80;64.40;;;;;;6232284;23;20215;-87
2022/06/01 01:34:37;;;;;;;6.40;5.30;;;18.80;64.40;;;;;;6207300;23;20134;-87
2022/06/01 01:37:04;;;;;;;7.57;5.55;;;18.80;64.50;;;;;;6206723;23;20159;-87
2022/06/01 01:39:32;;;;;;;5.80;5.22;;;18.80;64.60;;;;;;6182453;23;20596;-87
2022/06/01 01:41:58;;;;;;;6.47;5.50;;;18.70;64.60;;;;;;6172893;23;20199;-87
2022/06/01 01:44:40;;;;;;;5.80;5.22;;;18.80;64.50;;;;;;6152353;23;20180;-87
2022/06/01 01:47:07;;;;;;;6.10;5.30;;;18.70;64.50;;;;;;6154408;23;20150;-86
2022/06/01 01:49:38;;;;;;;6.25;5.05;;;18.70;64.50;;;;;;6177218;23;20143;-87
2022/06/01 01:52:08;;;;;;;5.78;5.18;;;18.80;64.60;;;;;;6177954;23;20146;-87
2022/06/01 01:55:12;;;;;;;6.15;5.53;;;18.70;64.50;;;;;;6153451;23;20157;-87
2022/06/01 01:58:02;;;;;;;6.30;5.70;;;18.70;64.60;;;;;;6210569;23;20158;-87
2022/06/01 02:00:31;;;;;;;6.38;5.00;;;18.70;64.60;;;;;;6201490;23;20197;-87
2022/06/01 02:03:32;;;;;;;6.45;5.50;;;18.70;64.70;;;;;;6177025;23;20150;-87
2022/06/01 02:06:14;;;;;;;6.00;5.32;;;18.70;64.60;;;;;;6179307;23;20153;-86
2022/06/01 02:08:54;;;;;;;6.25;5.20;;;18.80;64.80;;;;;;6151577;23;20146;-87
2022/06/01 02:14:17;;;;;;;7.10;5.60;;;18.70;64.50;;;;;;6194456;23;20525;-87
2022/06/01 02:16:46;;;;;;;7.78;5.38;;;18.70;64.70;;;;;;6184336;23;20581;-87
2022/06/01 02:19:23;;;;;;;6.47;5.10;;;18.70;64.70;;;;;;6176336;23;20196;-87
2022/06/01 02:21:54;;;;;;;5.70;5.10;;;18.70;64.70;;;;;;6176465;23;20174;-87
2022/06/01 02:24:20;;;;;;;7.22;5.53;;;18.70;64.70;;;;;;6175439;23;20612;-87
2022/06/01 02:26:50;;;;;;;5.90;5.07;;;18.70;64.70;;;;;;6150869;23;20149;-87
2022/06/01 02:29:21;;;;;;;6.30;5.13;;;18.70;64.70;;;;;;6151303;23;20280;-87
2022/06/01 02:31:50;;;;;;;6.05;5.43;;;18.70;64.80;;;;;;6176627;23;20134;-87
2022/06/01 02:34:20;;;;;;;6.10;5.18;;;18.70;64.60;;;;;;6175315;23;20154;-87
2022/06/01 02:36:48;;;;;;;6.53;5.65;;;18.70;64.70;;;;;;6177145;23;20157;-86
2022/06/01 02:39:16;;;;;;;5.78;5.18;;;18.70;64.70;;;;;;6199800;23;20134;-86
2022/06/01 02:44:20;;;;;;;6.95;5.32;;;18.70;64.80;;;;;;6203026;23;20173;-87
2022/06/01 02:46:49;;;;;;;5.95;5.05;;;18.70;64.70;;;;;;6199922;23;20150;-87
2022/06/01 02:49:18;;;;;;;6.80;5.25;;;18.70;64.80;;;;;;6226068;23;20219;-87
2022/06/01 02:51:49;;;;;;;6.45;5.13;;;18.70;64.80;;;;;;6175639;23;20146;-87
2022/06/01 02:54:14;;;;;;;6.65;5.32;;;18.70;64.80;;;;;;6200575;23;20150;-87
2022/06/01 02:56:41;;;;;;;6.97;5.30;;;18.60;64.80;;;;;;6200642;23;20146;-86
2022/06/01 02:59:08;;;;;;;7.18;5.50;;;18.70;64.70;;;;;;6175816;23;20532;-87
2022/06/01 03:01:36;;;;;;;6.05;5.30;;;18.70;64.80;;;;;;6176038;23;20462;-87
2022/06/01 03:04:03;;;;;;;6.35;5.22;;;18.60;64.70;;;;;;6200300;23;20170;-87
2022/06/01 03:06:31;;;;;;;5.88;5.13;;;18.70;64.80;;;;;;6200245;23;20465;-86
2022/06/01 03:08:58;;;;;;;6.50;5.18;;;18.70;64.80;;;;;;6200444;23;20135;-86
2022/06/01 03:11:30;;;;;;;6.30;5.38;;;18.70;64.80;;;;;;6200154;23;20149;-86
2022/06/01 03:13:58;;;;;;;5.93;5.18;;;18.60;64.80;;;;;;6225983;23;20130;-86
2022/06/01 03:16:27;;;;;;;5.95;5.18;;;18.70;64.80;;;;;;6200277;23;20157;-86
2022/06/01 03:18:56;;;;;;;6.60;5.15;;;18.70;64.80;;;;;;6200105;23;20146;-86
2022/06/01 03:21:23;;;;;;;5.80;5.00;;;18.70;64.80;;;;;;6200685;23;20153;-86
2022/06/01 03:23:53;;;;;;;6.20;4.97;;;18.60;64.80;;;;;;6199901;23;20240;-86
2022/06/01 03:26:19;;;;;;;6.38;5.28;;;18.60;64.80;;;;;;6200040;23;20150;-86
2022/06/01 03:28:46;;;;;;;5.82;5.22;;;18.60;64.90;;;;;;6174641;23;20146;-86
2022/06/01 03:31:15;;;;;;;6.95;5.35;;;18.60;64.90;;;;;;6199976;23;20138;-87
2022/06/01 03:33:46;;;;;;;6.10;5.50;;;18.60;64.90;;;;;;6199591;23;20130;-86
2022/06/01 03:36:12;;;;;;;7.20;5.35;;;18.60;64.90;;;;;;6224440;23;20157;-86
2022/06/01 03:38:45;;;;;;;5.65;5.13;;;18.60;64.90;;;;;;6199808;23;20199;-86
2022/06/01 03:41:11;;;;;;;5.80;5.20;;;18.60;64.80;;;;;;6198466;23;20168;-86
2022/06/01 03:46:32;;;;;;;5.97;5.00;;;18.70;64.80;;;;;;6202950;23;20166;-86
2022/06/01 03:49:00;;;;;;;8.05;5.32;;;18.60;64.80;;;;;;6223969;23;20220;-86
2022/06/01 03:51:26;;;;;;;5.95;5.22;;;18.60;64.80;;;;;;6223970;23;20146;-86
2022/06/01 03:53:54;;;;;;;5.78;5.18;;;18.60;64.90;;;;;;6174287;23;20154;-86
2022/06/01 03:56:24;;;;;;;5.90;5.13;;;18.60;64.80;;;;;;6198839;23;20182;-86
2022/06/01 03:58:51;;;;;;;6.22;5.18;;;18.70;64.90;;;;;;6199058;23;20153;-86
2022/06/01 04:01:18;;;;;;;6.05;5.43;;;18.60;64.90;;;;;;6174077;23;20150;-86
2022/06/01 04:03:46;;;;;;;6.57;5.18;;;18.70;64.90;;;;;;6199284;23;20130;-86
2022/06/01 04:06:11;;;;;;;5.50;5.00;;;18.70;64.90;;;;;;6224050;23;20126;-86
2022/06/01 04:08:38;;;;;;;5.82;4.88;;;18.60;64.80;;;;;;6175914;23;20241;-86
2022/06/01 04:11:08;;;;;;;6.68;5.10;;;18.60;64.80;;;;;;6200128;23;20210;-87
2022/06/01 04:13:35;;;;;;;6.28;5.15;;;18.60;64.80;;;;;;6199707;23;20150;-86
2022/06/01 04:16:02;;;;;;;5.70;5.10;;;18.60;64.80;;;;;;6224747;23;20191;-86
2022/06/01 04:18:34;;;;;;;6.15;5.55;;;18.60;64.80;;;;;;6174375;23;20161;-86
2022/06/01 04:21:01;;;;;;;5.47;4.88;;;18.60;64.90;;;;;;6199561;23;20150;-86
2022/06/01 04:23:33;;;;;;;6.50;5.43;;;18.60;64.80;;;;;;6199418;23;20146;-87
2022/06/01 04:25:58;;;;;;;6.20;5.47;;;18.60;64.80;;;;;;6200067;23;20162;-86
2022/06/01 04:28:25;;;;;;;8.85;5.45;;;18.60;64.90;;;;;;6174709;23;20205;-86
2022/06/01 04:30:56;;;;;;;6.07;5.28;;;18.60;64.90;;;;;;6225338;23;20161;-86
2022/06/01 04:33:26;;;;;;;6.22;5.18;;;18.60;64.90;;;;;;6225816;23;20135;-86
2022/06/01 04:35:57;;;;;;;5.88;5.20;;;18.60;65.00;;;;;;6199576;23;20470;-86
2022/06/01 04:38:23;;;;;;;5.43;4.93;;;18.60;65.00;;;;;;6225070;23;20166;-86
2022/06/01 04:40:50;;;;;;;7.20;5.25;;;18.60;64.90;;;;;;6173925;23;20165;-86
2022/06/01 04:43:22;;;;;;;5.60;5.00;;;18.60;65.00;;;;;;6198857;23;20201;-86
2022/06/01 04:45:51;;;;;;;6.15;5.30;;;18.60;65.00;;;;;;6199157;23;20185;-86
2022/06/01 04:48:18;;;;;;;6.82;5.45;;;18.50;65.00;;;;;;6199461;23;20165;-87
2022/06/01 04:50:44;;;;;;;6.10;5.45;;;18.60;65.00;;;;;;6199329;23;20210;-87
2022/06/01 04:53:17;;;;;;;6.97;5.00;;;18.60;64.90;;;;;;6224656;23;20142;-86
2022/06/01 04:55:45;;;;;;;5.65;5.00;;;18.60;64.80;;;;;;6224806;23;20138;-86
2022/06/01 04:58:20;;;;;;;5.03;4.53;;;18.60;64.90;;;;;;6223650;23;20185;-86
2022/06/01 05:00:57;;;;;;;6.15;4.97;;;18.60;64.50;;;;;;6197360;23;20150;-86
2022/06/01 05:03:25;;;;;;;5.70;5.03;;;18.60;64.70;;;;;;6222448;23;20137;-87
2022/06/01 05:05:50;;;;;;;5.57;4.95;;;18.60;64.50;;;;;;6172913;23;20540;-87
2022/06/01 05:08:24;;;;;;;5.03;4.53;;;18.60;64.30;;;;;;6197135;23;20143;-87
2022/06/01 05:10:51;;;;;;;5.38;4.88;;;18.60;64.50;;;;;;6222603;23;20558;-86
2022/06/01 05:13:21;;;;;;;5.03;4.53;;;18.60;64.80;;;;;;6173259;23;20139;-87
2022/06/01 05:16:12;;;;;;;5.47;4.47;;;18.60;64.90;;;;;;6197586;23;20466;-87
2022/06/01 05:18:39;;;;;;;5.93;5.20;;;18.60;64.80;;;;;;6197358;23;20157;-87
2022/06/01 05:21:04;;;;;;;5.45;4.72;;;18.60;64.90;;;;;;6197977;23;20231;-86
2022/06/01 05:23:36;;;;;;;5.07;4.57;;;18.60;64.90;;;;;;6173659;23;20149;-87
2022/06/01 05:26:12;;;;;;;5.55;4.95;;;18.60;65.00;;;;;;6197413;23;20173;-86
2022/06/01 05:28:54;;;;;;;5.18;4.65;;;18.60;64.90;;;;;;6223477;23;20636;-86
2022/06/01 05:31:27;;;;;;;5.18;4.68;;;18.60;65.00;;;;;;6198572;23;20138;-86
2022/06/01 05:34:03;;;;;;;4.88;4.47;;;18.50;65.00;;;;;;6225036;23;20130;-87
2022/06/01 05:36:34;;;;;;;4.85;4.35;;;18.50;64.90;;;;;;6224754;23;20138;-87
2022/06/01 05:39:02;;;;;;;5.10;4.32;;;18.50;65.00;;;;;;6198046;23;20570;-87
2022/06/01 05:41:27;;;;;;;5.28;4.78;;;18.50;64.80;;;;;;6201964;23;20204;-86
2022/06/01 05:43:57;;;;;;;4.90;4.40;;;18.60;65.10;;;;;;6179007;23;20196;-87
2022/06/01 05:46:26;;;;;;;4.90;4.40;;;18.50;65.00;;;;;;6202179;23;20169;-86
2022/06/01 05:48:54;;;;;;;4.80;4.28;;;18.60;65.00;;;;;;6201407;23;20142;-86
2022/06/01 05:51:21;;;;;;;4.80;4.30;;;18.60;64.70;;;;;;6200687;23;20145;-86
2022/06/01 05:53:50;;;;;;;5.22;4.38;;;18.60;64.90;;;;;;6200157;23;20221;-86
2022/06/01 05:56:19;;;;;;;6.93;4.40;;;18.60;64.80;;;;;;6226363;23;20133;-86
2022/06/01 05:58:45;;;;;;;4.97;4.47;;;18.60;64.90;;;;;;6176888;23;20503;-86
2022/06/01 06:01:11;;;;;;;4.60;4.13;;;18.60;64.90;;;;;;6201963;23;20596;-86
2022/06/01 06:03:37;;;;;;;4.72;4.30;;;18.60;65.00;;;;;;6174830;23;20216;-86
2022/06/01 06:06:17;;;;;;;4.80;4.20;;;18.60;65.10;;;;;;6172902;23;20141;-86
2022/06/01 06:08:56;;;;;;;4.63;4.13;;;18.50;64.90;;;;;;6204472;23;20130;-86
2022/06/01 06:11:24;;;;;;;4.80;4.07;;;18.60;65.10;;;;;;6197521;23;20153;-86
2022/06/01 06:13:49;;;;;;;5.07;4.57;;;18.60;65.00;;;;;;6171223;23;20145;-86
2022/06/01 06:16:16;;;;;;;5.82;4.63;;;18.60;65.20;;;;;;6172569;23;20475;-86
2022/06/01 06:18:43;;;;;;;4.63;4.18;;;18.50;65.00;;;;;;6171951;23;20195;-87
2022/06/01 07:00:05;;;;;;;5.13;4.20;;;18.70;65.00;;;;;;6178159;23;20584;-85
2022/06/01 07:02:32;;;;;;;6.32;4.38;;;18.60;64.90;;;;;;6159583;23;20256;-85
2022/06/01 07:04:58;;;;;;;4.80;4.20;;;18.70;65.00;;;;;;6192756;23;20550;-86
2022/06/01 07:07:23;;;;;;;4.20;3.85;;;18.70;64.80;;;;;;6166330;23;20150;-85
2022/06/01 07:09:49;;;;;;;4.43;3.97;;;18.70;64.80;;;;;;6193244;23;20156;-87
2022/06/01 07:12:17;;;;;;;4.35;3.63;;;18.70;64.70;;;;;;6144538;23;20192;-86
2022/06/01 07:14:52;;;;;;;5.15;3.80;;;18.70;64.50;;;;;;6168448;23;20154;-85
2022/06/01 07:17:17;;;;;;;6.28;3.72;;;18.70;64.70;;;;;;6169803;23;20141;-85
2022/06/01 07:19:45;;;;;;;4.72;3.88;;;18.80;64.50;;;;;;6144085;23;20180;-86
2022/06/01 07:22:10;;;;;;;5.68;4.13;;;18.80;64.60;;;;;;6143756;23;20156;-85
2022/06/01 07:24:36;;;;;;;5.82;3.80;;;18.80;64.70;;;;;;6218852;23;20206;-85
2022/06/01 07:27:02;;;;;;;4.75;4.20;;;18.80;64.50;;;;;;6190760;23;20141;-86
2022/06/01 07:29:34;;;;;;;4.70;4.30;;;18.80;64.60;;;;;;6142014;23;20172;-87
2022/06/01 07:32:00;;;;;;;4.15;3.75;;;18.80;64.90;;;;;;6143290;23;20151;-87
2022/06/01 07:34:44;;;;;;;5.55;4.20;;;18.80;64.90;;;;;;6192471;23;20158;-86
2022/06/01 07:45:09;;;;;;;6.10;3.90;;;18.90;64.70;;;;;;6205421;23;20188;-86
2022/06/01 07:47:35;;;;;;;4.25;3.85;;;18.80;64.70;;;;;;6224577;23;20131;-86
2022/06/01 07:50:05;;;;;;;4.22;3.70;;;18.80;64.50;;;;;;6173781;23;20469;-86
2022/06/01 07:52:31;;;;;;;4.00;3.60;;;18.80;64.40;;;;;;6173445;23;20228;-86
2022/06/01 07:54:57;;;;;;;4.10;3.70;;;18.90;64.60;;;;;;6198632;23;20153;-86
2022/06/01 07:57:22;;;;;;;3.88;3.50;;;18.90;64.50;;;;;;6198702;23;20209;-86
2022/06/01 07:59:48;;;;;;;4.68;3.78;;;18.90;64.40;;;;;;6196912;23;20145;-87
2022/06/01 08:02:14;;;;;;;4.13;3.72;;;19.00;64.30;;;;;;6199084;23;20137;-86
2022/06/01 08:04:43;;;;;;;5.70;3.92;;;18.90;64.30;;;;;;6223322;23;20184;-86
2022/06/01 08:07:09;;;;;;;4.65;3.88;;;18.90;64.30;;;;;;6249230;23;20195;-86
2022/06/01 08:10:09;;;;;;;;;;;;;;;;;;;;;
2022/06/01 08:15:19;;;;;;;4.40;3.92;;;19.00;64.40;;;;;;6156329;23;20230;-85
2022/06/01 08:17:47;;;;;;;3.33;3.03;;;18.90;64.30;;;;;;6107504;23;20222;-87
2022/06/01 08:20:15;;;;;;;4.45;4.00;;;19.00;64.40;;;;;;6107661;23;20160;-86
2022/06/01 08:22:49;;;;;;;3.95;3.50;;;19.00;64.20;;;;;;6107592;23;20209;-87
2022/06/01 08:25:21;;;;;;;3.70;3.40;;;19.10;64.20;;;;;;6052339;23;20258;-86
2022/06/01 08:27:48;;;;;;;4.07;3.63;;;19.10;64.10;;;;;;6016993;23;20154;-86
2022/06/01 08:30:17;;;;;;;4.57;4.10;;;19.10;64.00;;;;;;6019162;23;20162;-86
2022/06/01 08:32:43;;;;;;;4.40;4.00;;;19.10;64.00;;;;;;5996122;23;20139;-86
2022/06/01 08:35:10;;;;;;;4.85;3.88;;;19.10;64.00;;;;;;5972116;23;20162;-87
2022/06/01 08:37:41;;;;;;;5.05;4.07;;;19.10;64.10;;;;;;6017721;23;20162;-86
2022/06/01 08:40:08;;;;;;;4.32;3.88;;;19.10;64.50;;;;;;5997179;23;20237;-86
2022/06/01 08:42:35;;;;;;;5.28;3.90;;;19.10;64.00;;;;;;5996218;23;20142;-86
2022/06/01 08:45:24;;;;;;;4.22;3.45;;;19.30;64.10;;;;;;6001285;23;20233;-86
2022/06/01 08:47:51;;;;;;;4.90;3.78;;;19.20;63.80;;;;;;5996388;23;20162;-86
2022/06/01 08:50:22;;;;;;;5.07;3.38;;;19.20;63.70;;;;;;6018581;23;20150;-86
2022/06/01 08:52:49;;;;;;;4.68;3.70;;;19.30;63.70;;;;;;6059938;23;20152;-87
2022/06/01 08:55:17;;;;;;;4.25;3.55;;;19.30;63.70;;;;;;6082996;23;20145;-88
2022/06/01 08:58:09;;;;;;;5.07;3.90;;;19.40;63.70;;;;;;6092963;23;20174;-88
2022/06/01 09:00:42;;;;;;;5.43;3.60;;;19.30;63.30;;;;;;6153773;23;20262;-87
2022/06/01 09:03:24;;;;;;;3.95;3.55;;;19.40;63.40;;;;;;6132234;23;20152;-87
2022/06/01 09:06:20;;;;;;;4.07;3.60;;;19.40;63.20;;;;;;6142400;23;20163;-85
2022/06/01 09:09:06;;;;;;;4.47;3.70;;;19.40;63.20;;;;;;6143391;23;20150;-87
2022/06/01 09:11:34;;;;;;;4.68;3.70;;;19.40;63.20;;;;;;6134934;23;20601;-86
2022/06/01 09:14:17;;;;;;;3.63;3.33;;;19.40;63.10;;;;;;6082613;23;20471;-85
2022/06/01 09:16:46;;;;;;;4.20;3.33;;;19.40;63.10;;;;;;6105465;23;20206;-86
2022/06/01 09:19:23;;;;;;;6.00;3.72;;;19.40;63.10;;;;;;6140812;23;20150;-86
2022/06/01 09:24:38;;;;;;;3.47;3.17;;;19.50;63.10;;;;;;6223938;23;20169;-85
2022/06/01 09:27:24;;;;;;;4.60;3.75;;;19.50;63.10;;;;;;6195370;23;20414;-87
2022/06/01 09:29:57;;;;;;;3.80;3.40;;;19.50;63.20;;;;;;6203181;23;20185;-86
2022/06/01 09:32:28;;;;;;;3.83;3.42;;;19.40;63.10;;;;;;6195939;23;20484;-85
2022/06/01 09:34:54;;;;;;;4.10;3.70;;;19.30;63.20;;;;;;6170769;23;20153;-86
2022/06/01 09:37:38;;;;;;;;;;;;;;;;;;;;;
2022/06/01 09:40:18;;;;;;;6.00;3.53;;;19.30;63.20;;;;;;6143914;23;20253;-87
2022/06/01 09:42:48;;;;;;;3.90;3.45;;;19.40;63.20;;;;;;6216956;23;20557;-88
2022/06/01 09:45:48;;;;;;;4.20;3.80;;;19.40;63.10;;;;;;6176753;23;20187;-86
2022/06/01 09:48:21;;;;;;;4.10;3.70;;;19.40;63.40;;;;;;6198439;23;20573;-86
2022/06/01 09:50:57;;;;;;;3.67;3.38;;;19.40;63.50;;;;;;6181588;23;20149;-86
2022/06/01 09:53:22;;;;;;;4.72;3.75;;;19.40;63.40;;;;;;6232684;23;20140;-88
2022/06/01 09:55:51;;;;;;;3.92;3.55;;;19.40;63.30;;;;;;6199720;23;20137;-87
2022/06/01 10:06:05;;;;;;;4.20;3.80;;;19.40;63.40;;;;;;6198706;23;20137;-87
2022/06/01 10:07:32;;;;;;;5.85;4.20;;;19.40;63.40;;;;;;6125768;23;20160;-86
2022/06/01 10:10:27;;;;;;;4.25;3.08;;;19.30;63.50;;;;;;6098026;23;20218;-86
2022/06/01 10:12:58;;;;;;;4.05;3.47;;;19.30;63.60;;;;;;6131498;23;20311;-86
2022/06/01 10:15:36;;;;;;;4.93;3.50;;;19.30;63.60;;;;;;6132273;23;20147;-87
2022/06/01 10:18:08;;;;;;;4.05;3.60;;;19.30;63.60;;;;;;6131809;23;20215;-86
2022/06/01 10:20:46;;;;;;;3.83;3.53;;;19.30;63.30;;;;;;6132308;23;20162;-86
2022/06/01 10:23:17;;;;;;;3.63;3.30;;;19.30;63.30;;;;;;6108601;23;20152;-87
2022/06/01 10:26:21;;;;;;;;;;;;;;;;;;;;;
2022/06/01 10:28:52;;;;;;;4.43;3.95;;;19.30;63.30;;;;;;6104503;23;20666;-87
2022/06/01 10:31:42;;;;;;;4.85;3.65;;;19.40;63.10;;;;;;6132854;23;20271;-87
2022/06/01 10:34:25;;;;;;;6.13;3.70;;;19.40;63.10;;;;;;6139349;23;20162;-88
2022/06/01 10:37:07;;;;;;;4.82;3.67;;;19.40;63.10;;;;;;6137555;23;20151;-89
2022/06/01 10:40:40;;;;;;;;;;;;;;;;;;;;;
2022/06/01 10:43:18;;;;;;;4.60;3.75;;;19.40;63.10;;;;;;5969839;23;20178;-89
2022/06/01 10:45:59;;;;;;;;;;;;;;;;;;;;;
2022/06/01 10:48:31;;;;;;;6.43;4.03;;;19.40;64.00;;;;;;5910413;24;20195;-87
2022/06/01 10:52:09;;;;;;;4.25;3.80;;;19.40;63.40;;;;;;5887842;24;20206;-88
2022/06/01 10:54:29;;;;;;;3.70;3.40;;;19.40;63.40;;;;;;5877146;24;20626;-88
2022/06/01 11:12:02;;;;;;;4.07;3.67;;;19.50;63.10;;;;;;5692679;25;20171;-88
2022/06/01 11:14:52;;;;;;;4.57;4.18;;;19.50;63.10;;;;;;5721004;25;20169;-90
2022/06/01 11:17:33;;;;;;;4.45;4.03;;;19.50;63.10;;;;;;5743828;25;20157;-88
2022/06/01 11:20:22;;;;;;;4.40;4.00;;;19.50;63.00;;;;;;5818448;24;20162;-88
2022/06/01 11:23:03;;;;;;;4.32;3.92;;;19.50;63.00;;;;;;5875543;24;20162;-88
2022/06/01 11:25:47;;;;;;;4.40;3.97;;;19.50;62.90;;;;;;5890589;24;20185;-88
2022/06/01 11:28:34;;;;;;;4.20;3.80;;;19.50;62.70;;;;;;5915932;24;20184;-88
2022/06/01 11:31:20;;;;;;;4.97;3.83;;;19.50;62.50;;;;;;5971557;24;20148;-87
2022/06/01 11:35:00;;;;;;;8.52;4.15;;;19.50;62.30;;;;;;5957881;23;20166;-86
2022/06/01 11:38:11;;;;;;;7.18;3.97;;;19.60;62.20;;;;;;5982324;24;20155;-87
2022/06/01 11:40:52;;;;;;;5.82;3.95;;;19.60;62.20;;;;;;5993092;23;20151;-89
2022/06/01 11:43:34;;;;;;;4.13;3.72;;;19.60;62.30;;;;;;6006097;23;20151;-88
2022/06/01 11:46:03;;;;;;;4.60;3.50;;;19.60;62.20;;;;;;6008038;23;20268;-88
2022/06/01 11:48:34;;;;;;;4.95;3.83;;;19.60;62.00;;;;;;6055448;23;20149;-90
2022/06/01 11:51:13;;;;;;;5.38;3.78;;;19.60;62.10;;;;;;6112985;23;20158;-90
2022/06/01 11:57:40;;;;;;;4.28;3.88;;;19.60;61.70;;;;;;5967260;24;20155;-88
2022/06/01 12:00:31;;;;;;;4.40;4.00;;;19.60;61.70;;;;;;5961366;24;20228;-85
2022/06/01 12:03:25;;;;;;;4.47;4.07;;;19.70;61.40;;;;;;5933171;24;20295;-89
2022/06/01 12:06:08;;;;;;;5.50;4.25;;;19.70;61.80;;;;;;5909659;24;20211;-87
2022/06/01 12:08:40;;;;;;;4.47;3.85;;;19.60;61.90;;;;;;5930382;24;20157;-87
2022/06/01 12:11:10;;;;;;;5.05;3.95;;;19.60;61.80;;;;;;5930106;24;20157;-86
2022/06/01 12:13:53;;;;;;;3.75;3.45;;;19.70;61.20;;;;;;5946878;24;20176;-87
2022/06/01 12:16:26;;;;;;;4.28;3.88;;;19.70;61.00;;;;;;5962581;24;20345;-87
2022/06/01 12:19:08;;;;;;;4.28;3.88;;;19.70;61.10;;;;;;5986190;24;20166;-87
2022/06/01 12:21:36;;;;;;;5.13;3.50;;;19.70;61.20;;;;;;5960794;24;20216;-87
2022/06/01 12:29:53;;;;;;;4.13;3.72;;;19.70;61.30;;;;;;6007928;23;20136;-88
2022/06/01 12:32:19;;;;;;;5.50;3.88;;;19.70;61.10;;;;;;6031015;23;20597;-88
2022/06/01 12:34:50;;;;;;;5.22;4.07;;;19.70;61.40;;;;;;6151130;23;20174;-86
2022/06/01 12:37:32;;;;;;;5.13;4.28;;;19.70;61.50;;;;;;6144739;23;20154;-88
2022/06/01 12:40:13;;;;;;;4.50;4.10;;;19.70;61.70;;;;;;6196978;23;20526;-86
2022/06/01 12:42:42;;;;;;;4.32;3.92;;;19.70;61.50;;;;;;6134423;23;20251;-87
2022/06/01 12:45:14;;;;;;;4.90;3.72;;;19.70;61.60;;;;;;6131736;23;20245;-87
2022/06/01 12:48:05;;;;;;;6.75;3.97;;;19.70;61.20;;;;;;6108730;23;20187;-86
2022/06/01 12:50:45;;;;;;;4.53;4.00;;;19.70;61.60;;;;;;6159746;23;20258;-86
2022/06/01 12:53:22;;;;;;;5.13;4.25;;;19.70;61.30;;;;;;6138240;23;20166;-86
2022/06/01 12:55:48;;;;;;;4.10;3.70;;;19.70;61.30;;;;;;6110698;23;20591;-86
2022/06/01 12:58:18;;;;;;;4.00;3.58;;;19.70;61.00;;;;;;6136707;23;20653;-86
2022/06/01 13:00:48;;;;;;;4.63;3.97;;;19.80;60.90;;;;;;6110396;23;20693;-86
2022/06/01 13:03:15;;;;;;;4.45;4.00;;;19.80;60.80;;;;;;6139468;23;20162;-85
2022/06/01 13:05:46;;;;;;;7.45;4.03;;;19.80;61.00;;;;;;6140772;23;20217;-86
2022/06/01 13:08:17;;;;;;;4.45;3.70;;;19.80;61.00;;;;;;6164549;23;20154;-87
2022/06/01 13:10:43;;;;;;;4.78;4.03;;;19.80;60.90;;;;;;6166021;23;20574;-87
2022/06/01 13:13:11;;;;;;;6.25;3.65;;;19.80;60.80;;;;;;6136096;23;20154;-87
2022/06/01 13:15:37;;;;;;;4.93;4.10;;;19.80;61.00;;;;;;6162349;23;20139;-87
2022/06/01 13:18:07;;;;;;;4.75;4.00;;;19.70;61.20;;;;;;6140314;23;20214;-87
2022/06/01 13:20:37;;;;;;;7.05;4.28;;;19.70;61.50;;;;;;6141830;23;20209;-87
2022/06/01 13:23:06;;;;;;;6.03;4.20;;;19.70;61.40;;;;;;6164625;23;20594;-86
2022/06/01 13:25:32;;;;;;;5.05;4.20;;;19.70;61.50;;;;;;6166181;23;20256;-87
2022/06/01 13:27:59;;;;;;;4.53;3.97;;;19.70;61.00;;;;;;6171851;23;20607;-86
2022/06/01 13:30:26;;;;;;;5.22;4.00;;;19.70;61.20;;;;;;6171647;23;20154;-87
2022/06/01 13:32:57;;;;;;;5.85;4.05;;;19.70;61.30;;;;;;6163356;23;20131;-86
2022/06/01 13:35:34;;;;;;;5.68;4.18;;;19.60;60.90;;;;;;6165495;23;20181;-88
2022/06/01 13:38:00;;;;;;;5.07;4.18;;;19.70;60.50;;;;;;6192049;23;20138;-85
2022/06/01 13:40:30;;;;;;;5.35;4.30;;;19.70;60.80;;;;;;6141309;23;20214;-85
2022/06/01 13:43:01;;;;;;;6.10;3.92;;;19.70;60.70;;;;;;6167205;23;20177;-87
2022/06/01 13:45:56;;;;;;;4.10;3.70;;;19.60;60.50;;;;;;6166680;23;20158;-87
2022/06/01 13:48:44;;;;;;;4.20;3.80;;;19.60;60.10;;;;;;6145260;23;20205;-87
2022/06/01 13:51:13;;;;;;;4.53;3.67;;;19.60;59.70;;;;;;6167780;23;20134;-87
2022/06/01 13:53:44;;;;;;;5.22;3.75;;;19.60;59.40;;;;;;6141843;23;20150;-85
2022/06/01 13:56:30;;;;;;;4.13;3.72;;;19.60;59.70;;;;;;6166222;23;20142;-86
2022/06/01 13:58:59;;;;;;;4.50;3.80;;;19.60;59.10;;;;;;6192780;23;20134;-85
2022/06/01 14:01:55;;;;;;;4.93;3.70;;;19.70;59.20;;;;;;6168718;23;20633;-86
2022/06/01 14:04:39;;;;;;;4.22;3.83;;;19.60;59.10;;;;;;6215905;23;20178;-86
2022/06/01 14:07:09;;;;;;;4.57;3.95;;;19.60;59.10;;;;;;6215417;23;20177;-86
2022/06/01 14:09:43;;;;;;;4.43;3.90;;;19.60;59.00;;;;;;6165857;23;20142;-86
2022/06/01 14:12:08;;;;;;;4.82;3.70;;;19.60;58.90;;;;;;6190641;23;20134;-86
2022/06/01 14:14:38;;;;;;;4.70;3.97;;;19.60;58.30;;;;;;6192199;23;20220;-86
2022/06/01 14:17:07;;;;;;;4.30;3.90;;;19.60;58.50;;;;;;6191966;23;20130;-86
2022/06/01 14:19:33;;;;;;;4.75;3.60;;;19.60;58.50;;;;;;6192539;23;20165;-86
2022/06/01 14:22:02;;;;;;;4.47;4.07;;;19.60;58.40;;;;;;6168184;23;20150;-86
2022/06/01 14:28:28;;;;;;;4.90;3.92;;;19.50;58.30;;;;;;6192677;23;20162;-87
2022/06/01 14:29:58;;;;;;;3.97;3.53;;;19.60;57.00;;;;;;6196078;23;20159;-86
2022/06/01 14:32:25;;;;;;;4.05;3.60;;;19.60;57.00;;;;;;6217229;23;20134;-86
2022/06/01 14:34:52;;;;;;;4.13;3.70;;;19.60;56.80;;;;;;6156027;23;20487;-86
2022/06/01 14:37:18;;;;;;;3.70;3.40;;;19.60;57.10;;;;;;6167010;23;20156;-86
2022/06/01 14:39:44;;;;;;;3.88;3.47;;;19.60;56.40;;;;;;6191217;23;20470;-85
2022/06/01 14:42:11;;;;;;;5.22;3.60;;;19.60;57.10;;;;;;6191845;23;20134;-86
2022/06/01 14:44:37;;;;;;;3.70;3.30;;;19.60;56.30;;;;;;6191833;23;20177;-86
2022/06/01 14:47:03;;;;;;;5.10;3.42;;;19.60;56.30;;;;;;6215687;23;20137;-86
2022/06/01 14:49:29;;;;;;;3.72;3.35;;;19.60;56.20;;;;;;6165932;23;20574;-87
2022/06/01 14:51:57;;;;;;;4.18;3.78;;;19.60;56.30;;;;;;6165722;23;20448;-85
2022/06/01 14:54:24;;;;;;;4.05;3.25;;;19.60;56.90;;;;;;6190124;23;20554;-85
2022/06/01 14:56:49;;;;;;;4.95;3.03;;;19.60;56.30;;;;;;6165787;23;20153;-85